createdAt,value
2017-12-28T00:01:36.942Z,93554.05
2017-12-28T00:04:04.498Z,93558.60
2017-12-28T00:06:32.085Z,93555.19
2017-12-28T00:08:59.571Z,93549.75
2017-12-28T00:11:27.118Z,93530.45
2017-12-28T00:13:54.649Z,93527.45
2017-12-28T00:16:22.142Z,93536.70
2017-12-28T00:18:49.690Z,93534.28
2017-12-28T00:21:17.266Z,93526.91
2017-12-28T00:23:44.819Z,93535.38
2017-12-28T00:26:12.296Z,93536.56
2017-12-28T00:28:39.813Z,93517.57
2017-12-28T00:31:07.367Z,93500.31
2017-12-28T00:33:34.848Z,93513.11
2017-12-28T00:36:02.393Z,93529.86
2017-12-28T00:38:29.875Z,93501.20
2017-12-28T00:40:57.353Z,93500.90
2017-12-28T00:43:24.942Z,93516.28
2017-12-28T00:45:52.492Z,93516.33
2017-12-28T00:48:19.973Z,93522.66
2017-12-28T00:50:47.485Z,93496.75
2017-12-28T00:53:14.979Z,93502.66
2017-12-28T00:55:42.542Z,93487.36
2017-12-28T00:58:10.053Z,93494.06
2017-12-28T01:00:37.537Z,93496.11
2017-12-28T01:03:05.086Z,93482.88
2017-12-28T01:05:32.611Z,93501.89
2017-12-28T01:08:00.154Z,93485.19
2017-12-28T01:10:27.633Z,93483.45
2017-12-28T01:12:55.206Z,93495.67
2017-12-28T01:15:22.754Z,93471.39
2017-12-28T01:17:50.229Z,93474.40
2017-12-28T01:20:17.820Z,93479.09
2017-12-28T01:22:45.308Z,93476.31
2017-12-28T01:25:12.890Z,93450.27
2017-12-28T01:27:40.466Z,93485.09
2017-12-28T01:30:07.945Z,93460.87
2017-12-28T01:32:35.499Z,93459.19
2017-12-28T01:35:03.045Z,93479.59
2017-12-28T01:37:30.552Z,93477.39
2017-12-28T01:39:58.114Z,93464.46
2017-12-28T01:42:25.699Z,93458.09
2017-12-28T01:44:53.262Z,93462.02
2017-12-28T01:47:20.745Z,93455.45
2017-12-28T01:49:48.310Z,93436.28
2017-12-28T01:52:15.858Z,93456.22
2017-12-28T01:54:43.438Z,93404.33
2017-12-28T01:57:10.997Z,93444.66
2017-12-28T01:59:38.477Z,93404.22
2017-12-28T02:02:05.992Z,93391.75
2017-12-28T02:04:33.538Z,93425.77
2017-12-28T02:07:01.057Z,93412.28
2017-12-28T02:09:28.645Z,93398.84
2017-12-28T02:11:56.129Z,93397.58
2017-12-28T02:14:23.608Z,93373.03
2017-12-28T02:16:51.206Z,93376.69
2017-12-28T02:19:18.695Z,93367.77
2017-12-28T02:21:46.166Z,93358.43
2017-12-28T02:24:13.674Z,93360.58
2017-12-28T02:26:41.162Z,93362.20
2017-12-28T02:29:08.708Z,93367.30
2017-12-28T02:31:36.221Z,93385.48
2017-12-28T02:34:03.771Z,93355.23
2017-12-28T02:36:31.249Z,93355.56
2017-12-28T02:38:58.765Z,93361.48
2017-12-28T02:41:26.308Z,93337.61
2017-12-28T02:43:54.733Z,93326.06
2017-12-28T02:46:22.258Z,93341.66
2017-12-28T02:48:49.803Z,93323.27
2017-12-28T02:51:17.352Z,93332.05
2017-12-28T02:53:44.872Z,93325.27
2017-12-28T02:56:12.356Z,93331.59
2017-12-28T02:58:39.833Z,93326.63
2017-12-28T03:01:07.415Z,93312.75
2017-12-28T03:03:34.962Z,93324.59
2017-12-28T03:06:02.507Z,93323.83
2017-12-28T03:08:30.018Z,93334.02
2017-12-28T03:10:57.571Z,93321.69
2017-12-28T03:13:25.116Z,93343.77
2017-12-28T03:15:52.637Z,93315.27
2017-12-28T03:18:20.114Z,93306.44
2017-12-28T03:20:47.659Z,93325.86
2017-12-28T03:23:15.240Z,93274.79
2017-12-28T03:25:42.798Z,93294.27
2017-12-28T03:28:10.305Z,93294.95
2017-12-28T03:30:37.883Z,93293.62
2017-12-28T03:33:05.371Z,93338.97
2017-12-28T03:35:32.926Z,93263.70
2017-12-28T03:38:00.446Z,93328.23
2017-12-28T03:40:27.982Z,93306.51
2017-12-28T03:42:55.526Z,93315.43
2017-12-28T03:45:23.111Z,93302.87
2017-12-28T03:47:50.677Z,93283.06
2017-12-28T03:50:18.231Z,93278.70
2017-12-28T03:52:45.802Z,93284.31
2017-12-28T03:55:13.281Z,93308.13
2017-12-28T03:57:40.830Z,93299.20
2017-12-28T04:00:08.345Z,93281.34
2017-12-28T04:02:35.822Z,93282.58
2017-12-28T04:05:03.378Z,93317.31
2017-12-28T04:07:30.888Z,93292.64
2017-12-28T04:09:58.434Z,93295.59
2017-12-28T04:12:25.987Z,93286.08
2017-12-28T04:14:53.491Z,93285.16
2017-12-28T04:17:21.044Z,93288.03
2017-12-28T04:19:48.595Z,93276.45
2017-12-28T04:22:16.119Z,93279.33
2017-12-28T04:24:43.668Z,93303.09
2017-12-28T04:27:11.146Z,93272.44
2017-12-28T04:29:38.657Z,93283.15
2017-12-28T04:32:06.198Z,93276.15
2017-12-28T04:34:33.674Z,93221.66
2017-12-28T04:37:01.246Z,93296.19
2017-12-28T04:39:28.728Z,93256.67
2017-12-28T04:41:56.283Z,93277.94
2017-12-28T04:44:23.792Z,93255.86
2017-12-28T04:46:51.334Z,93263.45
2017-12-28T04:49:18.809Z,93273.97
2017-12-28T04:51:46.321Z,93267.55
2017-12-28T04:54:13.801Z,93233.94
2017-12-28T04:56:41.281Z,93269.91
2017-12-28T04:59:08.786Z,93273.22
2017-12-28T05:01:36.269Z,93284.97
2017-12-28T05:04:03.737Z,93276.83
2017-12-28T05:06:31.254Z,93270.40
2017-12-28T05:08:58.804Z,93249.54
2017-12-28T05:11:26.281Z,93251.08
2017-12-28T05:13:53.850Z,93264.79
2017-12-28T05:16:21.330Z,93264.48
2017-12-28T05:18:48.804Z,93252.47
2017-12-28T05:21:16.387Z,93234.40
2017-12-28T05:23:43.926Z,93256.21
2017-12-28T05:26:11.401Z,93233.59
2017-12-28T05:28:38.909Z,93235.22
2017-12-28T05:31:06.459Z,93242.00
2017-12-28T05:33:34.007Z,93237.31
2017-12-28T05:36:01.513Z,93243.49
2017-12-28T05:38:29.058Z,93250.65
2017-12-28T05:40:56.594Z,93238.25
2017-12-28T05:43:24.178Z,93252.55
2017-12-28T05:45:51.649Z,93259.80
2017-12-28T05:48:19.199Z,93250.59
2017-12-28T05:50:46.711Z,93248.45
2017-12-28T05:53:14.258Z,93226.38
2017-12-28T05:55:41.743Z,93244.17
2017-12-28T05:58:09.249Z,93199.14
2017-12-28T06:00:36.724Z,93235.70
2017-12-28T06:03:04.267Z,93255.16
2017-12-28T06:05:31.834Z,93198.14
2017-12-28T06:07:59.309Z,93215.06
2017-12-28T06:10:26.785Z,93220.95
2017-12-28T06:12:54.363Z,93231.55
2017-12-28T06:15:21.902Z,93225.18
2017-12-28T06:17:49.450Z,93244.71
2017-12-28T06:20:16.957Z,93241.23
2017-12-28T06:22:44.449Z,93229.68
2017-12-28T06:25:11.921Z,93232.45
2017-12-28T06:27:39.445Z,93236.76
2017-12-28T06:30:07.007Z,93239.12
2017-12-28T06:32:34.559Z,93244.84
2017-12-28T06:35:02.084Z,93233.23
2017-12-28T06:37:29.562Z,93224.25
2017-12-28T06:39:57.038Z,93235.59
2017-12-28T06:42:24.561Z,93235.27
2017-12-28T06:44:52.045Z,93236.86
2017-12-28T06:47:19.587Z,93244.00
2017-12-28T06:49:47.161Z,93233.58
2017-12-28T06:52:14.720Z,93248.87
2017-12-28T06:54:42.233Z,93233.44
2017-12-28T06:57:09.785Z,93240.17
2017-12-28T06:59:37.265Z,93239.25
2017-12-28T07:02:04.781Z,93240.74
2017-12-28T07:04:32.269Z,93233.85
2017-12-28T07:06:59.750Z,93238.95
2017-12-28T07:09:27.336Z,93231.30
2017-12-28T07:11:54.825Z,93233.80
2017-12-28T07:14:22.332Z,93229.18
2017-12-28T07:16:49.853Z,93227.48
2017-12-28T07:19:17.414Z,93228.78
2017-12-28T07:21:44.893Z,93240.42
2017-12-28T07:24:12.483Z,93243.11
2017-12-28T07:26:39.976Z,93235.80
2017-12-28T07:29:07.473Z,93236.75
2017-12-28T07:31:35.058Z,93242.31
2017-12-28T07:34:02.620Z,93244.67
2017-12-28T07:36:30.105Z,93254.11
2017-12-28T07:38:57.634Z,93248.97
2017-12-28T07:41:25.117Z,93244.86
2017-12-28T07:43:52.597Z,93254.01
2017-12-28T07:46:20.186Z,93268.42
2017-12-28T07:48:47.685Z,93254.56
2017-12-28T07:51:15.251Z,93244.64
2017-12-28T07:53:42.907Z,93247.05
2017-12-28T07:56:10.417Z,93222.66
2017-12-28T07:58:37.905Z,93227.45
2017-12-28T08:01:05.417Z,93212.45
2017-12-28T08:03:32.978Z,93203.52
2017-12-28T08:06:00.537Z,93216.28
2017-12-28T08:08:28.127Z,93225.58
2017-12-28T08:10:55.621Z,93218.45
2017-12-28T08:13:23.177Z,93216.78
2017-12-28T08:15:50.693Z,93215.98
2017-12-28T08:18:18.181Z,93211.34
2017-12-28T08:20:45.730Z,93205.16
2017-12-28T08:23:13.266Z,93195.62
2017-12-28T08:25:40.823Z,93207.17
2017-12-28T08:28:08.388Z,93206.22
2017-12-28T08:30:35.922Z,93198.70
2017-12-28T08:33:03.500Z,93202.85
2017-12-28T08:35:31.064Z,93196.96
2017-12-28T08:37:58.656Z,93211.69
2017-12-28T08:40:26.158Z,93224.87
2017-12-28T08:42:53.643Z,93208.08
2017-12-28T08:45:21.246Z,93215.48
2017-12-28T08:47:48.745Z,93212.80
2017-12-28T08:50:16.304Z,93202.99
2017-12-28T08:52:43.820Z,93206.42
2017-12-28T08:55:11.315Z,93202.18
2017-12-28T08:57:38.821Z,93186.39
2017-12-28T09:00:06.348Z,93201.78
2017-12-28T09:02:33.837Z,93186.09
2017-12-28T09:05:01.328Z,93181.95
2017-12-28T09:07:28.931Z,93192.98
2017-12-28T09:09:56.491Z,93182.36
2017-12-28T09:12:24.051Z,93156.34
2017-12-28T09:14:51.569Z,93181.89
2017-12-28T09:17:19.059Z,93164.13
2017-12-28T09:19:46.607Z,93168.83
2017-12-28T09:22:14.186Z,93181.63
2017-12-28T09:24:41.677Z,93170.80
2017-12-28T09:27:09.157Z,93159.45
2017-12-28T09:29:36.747Z,93142.03
2017-12-28T09:32:04.303Z,93136.26
2017-12-28T09:34:31.850Z,93127.78
2017-12-28T09:36:59.430Z,93138.20
2017-12-28T09:39:26.912Z,93143.10
2017-12-28T09:41:54.394Z,93128.13
2017-12-28T09:44:21.971Z,93142.23
2017-12-28T09:46:49.453Z,93113.67
2017-12-28T09:49:16.937Z,93111.06
2017-12-28T09:51:44.460Z,93097.98
2017-12-28T09:54:12.006Z,93114.28
2017-12-28T09:56:39.559Z,93095.95
2017-12-28T09:59:07.134Z,93093.95
2017-12-28T10:01:34.695Z,93070.62
2017-12-28T10:04:02.180Z,93090.32
2017-12-28T10:06:29.770Z,93068.81
2017-12-28T10:08:57.315Z,93061.36
2017-12-28T10:11:24.890Z,93062.12
2017-12-28T10:13:52.466Z,93065.39
2017-12-28T10:16:19.945Z,93066.06
2017-12-28T10:18:47.502Z,93054.81
2017-12-28T10:21:15.021Z,93059.63
2017-12-28T10:23:42.503Z,93038.53
2017-12-28T10:26:09.983Z,93050.63
2017-12-28T10:28:37.503Z,93039.29
2017-12-28T10:31:05.051Z,93041.58
2017-12-28T10:33:32.538Z,93033.72
2017-12-28T10:36:00.050Z,93026.13
2017-12-28T10:38:27.599Z,93052.22
2017-12-28T10:40:55.163Z,93054.83
2017-12-28T10:43:22.746Z,93018.84
2017-12-28T10:45:50.226Z,93029.91
2017-12-28T10:48:17.707Z,93025.68
2017-12-28T10:50:45.300Z,93015.56
2017-12-28T10:53:12.846Z,93025.50
2017-12-28T10:55:40.394Z,93020.61
2017-12-28T10:58:07.984Z,93013.36
2017-12-28T11:00:35.543Z,93012.60
2017-12-28T11:03:03.061Z,93005.36
2017-12-28T11:05:30.576Z,93000.72
2017-12-28T11:07:58.150Z,92995.70
2017-12-28T11:10:25.628Z,93001.27
2017-12-28T11:12:53.140Z,92992.34
2017-12-28T11:15:20.629Z,92988.10
2017-12-28T11:17:48.109Z,92996.22
2017-12-28T11:20:15.625Z,93003.06
2017-12-28T11:22:43.179Z,92977.09
2017-12-28T11:25:10.726Z,92984.53
2017-12-28T11:27:38.315Z,92982.66
2017-12-28T11:30:05.862Z,92968.88
2017-12-28T11:32:33.428Z,92995.47
2017-12-28T11:35:00.945Z,92986.89
2017-12-28T11:37:28.434Z,92969.84
2017-12-28T11:39:55.982Z,92966.47
2017-12-28T11:42:23.558Z,92971.63
2017-12-28T11:44:51.037Z,92987.95
2017-12-28T11:47:18.591Z,92967.75
2017-12-28T11:49:56.065Z,92964.53
2017-12-28T11:52:23.619Z,92966.83
2017-12-28T11:55:06.020Z,92978.91
2017-12-28T11:57:37.575Z,92981.11
2017-12-28T12:00:10.616Z,92974.22
2017-12-28T12:02:41.057Z,92985.55
2017-12-28T12:05:08.553Z,92982.68
2017-12-28T12:07:46.063Z,92961.00
2017-12-28T12:10:13.565Z,92970.70
2017-12-28T12:12:41.049Z,92975.43
2017-12-28T12:15:08.634Z,92986.83
2017-12-28T12:17:36.115Z,92983.87
2017-12-28T12:20:03.678Z,92993.67
2017-12-28T12:22:31.196Z,92983.46
2017-12-28T12:24:58.747Z,92990.66
2017-12-28T12:27:26.226Z,92992.89
2017-12-28T12:29:53.807Z,92963.14
2017-12-28T12:32:21.290Z,92972.19
2017-12-28T12:34:48.770Z,92970.53
2017-12-28T12:37:16.354Z,92971.92
2017-12-28T12:39:43.907Z,92973.61
2017-12-28T12:42:11.454Z,92983.41
2017-12-28T12:44:39.034Z,92981.45
2017-12-28T12:47:06.517Z,92979.05
2017-12-28T12:49:34.071Z,92976.24
2017-12-28T12:52:01.585Z,92980.13
2017-12-28T12:54:29.131Z,92984.16
2017-12-28T12:56:56.677Z,92988.44
2017-12-28T12:59:24.250Z,92983.42
2017-12-28T13:01:51.733Z,92977.56
2017-12-28T13:04:19.217Z,92983.48
2017-12-28T13:06:46.819Z,92995.02
2017-12-28T13:09:14.297Z,92999.66
2017-12-28T13:11:41.858Z,92995.51
2017-12-28T13:14:09.436Z,93011.19
2017-12-28T13:16:36.998Z,93017.59
2017-12-28T13:19:04.555Z,93022.73
2017-12-28T13:21:32.073Z,93021.80
2017-12-28T13:23:59.557Z,93013.94
2017-12-28T13:26:27.102Z,93003.08
2017-12-28T13:28:54.687Z,92999.30
2017-12-28T13:31:22.169Z,93001.12
2017-12-28T13:33:49.655Z,93000.12
2017-12-28T13:36:17.240Z,93002.20
2017-12-28T13:38:44.725Z,92994.88
2017-12-28T13:41:12.205Z,92991.41
2017-12-28T13:43:39.719Z,92990.39
2017-12-28T13:46:07.270Z,92992.88
2017-12-28T13:48:34.821Z,92998.80
2017-12-28T13:51:02.342Z,92999.52
2017-12-28T13:53:29.821Z,92974.48
2017-12-28T13:55:57.306Z,92965.09
2017-12-28T13:58:24.831Z,92971.06
2017-12-28T14:00:52.313Z,92975.76
2017-12-28T14:03:19.863Z,92989.37
2017-12-28T14:05:47.454Z,93004.77
2017-12-28T14:08:15.011Z,93003.08
2017-12-28T14:10:42.567Z,93008.59
2017-12-28T14:13:10.118Z,93012.93
2017-12-28T14:15:37.679Z,93003.08
2017-12-28T14:18:05.226Z,92984.88
2017-12-28T14:20:32.811Z,92996.04
2017-12-28T14:23:00.368Z,93001.05
2017-12-28T14:25:27.918Z,92991.34
2017-12-28T14:27:55.503Z,92996.91
2017-12-28T14:30:22.989Z,93001.14
2017-12-28T14:32:50.477Z,93013.42
2017-12-28T14:35:18.076Z,93012.20
2017-12-28T14:37:45.570Z,93010.73
2017-12-28T14:40:13.099Z,92997.50
2017-12-28T14:42:40.681Z,92997.72
2017-12-28T14:45:08.264Z,93017.38
2017-12-28T14:47:35.757Z,93012.08
2017-12-28T14:50:03.344Z,93017.91
2017-12-28T14:52:30.837Z,93022.34
2017-12-28T14:54:58.390Z,93002.52
2017-12-28T14:57:25.987Z,92995.67
2017-12-28T14:59:53.546Z,93008.26
2017-12-28T15:02:21.098Z,93007.19
2017-12-28T15:04:48.655Z,93000.80
2017-12-28T15:07:16.137Z,93011.06
2017-12-28T15:09:43.666Z,93023.89
2017-12-28T15:12:11.161Z,93013.94
2017-12-28T15:14:38.648Z,93014.28
2017-12-28T15:17:06.181Z,93030.41
2017-12-28T15:19:33.694Z,93027.52
2017-12-28T15:22:01.251Z,93004.59
2017-12-28T15:24:28.849Z,92998.97
2017-12-28T15:26:56.353Z,93009.38
2017-12-28T15:29:23.841Z,93020.37
2017-12-28T15:31:51.369Z,93020.27
2017-12-28T15:34:18.923Z,93013.33
2017-12-28T15:36:46.497Z,93015.41
2017-12-28T15:39:14.087Z,93012.66
2017-12-28T15:41:41.650Z,93012.72
2017-12-28T15:44:09.220Z,93016.69
2017-12-28T15:46:36.799Z,92995.34
2017-12-28T15:49:04.294Z,92988.67
2017-12-28T15:51:31.855Z,93000.05
2017-12-28T15:53:59.414Z,93009.23
2017-12-28T15:56:26.966Z,93013.27
2017-12-28T15:58:54.453Z,93013.41
2017-12-28T16:01:22.030Z,93010.61
2017-12-28T16:03:49.513Z,93015.42
2017-12-28T16:06:17.002Z,93031.95
2017-12-28T16:08:44.578Z,93032.01
2017-12-28T16:11:12.129Z,93042.02
2017-12-28T16:13:39.691Z,93055.53
2017-12-28T16:16:07.202Z,93045.23
2017-12-28T16:18:34.759Z,93040.48
2017-12-28T16:21:02.244Z,93033.43
2017-12-28T16:23:29.773Z,93031.14
2017-12-28T16:25:57.338Z,93026.34
2017-12-28T16:28:24.822Z,93019.84
2017-12-28T16:30:52.337Z,93016.28
2017-12-28T16:33:19.817Z,93013.12
2017-12-28T16:35:47.384Z,92997.80
2017-12-28T16:38:14.967Z,92994.22
2017-12-28T16:40:42.523Z,93005.56
2017-12-28T16:43:10.074Z,93006.58
2017-12-28T16:45:37.605Z,92999.38
2017-12-28T16:48:05.098Z,93010.39
2017-12-28T16:50:32.650Z,93013.00
2017-12-28T16:53:00.161Z,92999.88
2017-12-28T16:55:28.831Z,93010.23
2017-12-28T16:57:56.389Z,93019.83
2017-12-28T17:00:23.982Z,93030.92
2017-12-28T17:02:51.474Z,93041.05
2017-12-28T17:05:18.957Z,93046.16
2017-12-28T17:07:46.564Z,93057.59
2017-12-28T17:10:14.123Z,93063.98
2017-12-28T17:12:41.608Z,93064.84
2017-12-28T17:15:09.190Z,93061.42
2017-12-28T17:17:36.673Z,93060.00
2017-12-28T17:20:04.186Z,93054.42
2017-12-28T17:22:31.706Z,93043.74
2017-12-28T17:24:59.211Z,93045.42
2017-12-28T17:27:26.767Z,93031.63
2017-12-28T17:29:54.377Z,93036.39
2017-12-28T17:32:21.953Z,93037.96
2017-12-28T17:34:49.453Z,93035.47
2017-12-28T17:37:17.049Z,93051.80
2017-12-28T17:39:44.542Z,93057.58
2017-12-28T17:42:12.092Z,93060.86
2017-12-28T17:44:39.691Z,93054.00
2017-12-28T17:47:07.212Z,93074.19
2017-12-28T17:49:34.693Z,93081.09
2017-12-28T17:52:02.291Z,93068.73
2017-12-28T17:54:29.773Z,93063.36
2017-12-28T17:56:57.326Z,93076.19
2017-12-28T17:59:24.915Z,93084.72
2017-12-28T18:01:52.405Z,93068.53
2017-12-28T18:04:19.906Z,93051.77
2017-12-28T18:06:47.495Z,93043.81
2017-12-28T18:09:15.065Z,93058.81
2017-12-28T18:11:42.615Z,93062.80
2017-12-28T18:14:10.133Z,93057.39
2017-12-28T18:16:37.625Z,93068.52
2017-12-28T18:19:05.174Z,93070.47
2017-12-28T18:21:32.754Z,93076.24
2017-12-28T18:24:00.311Z,93061.18
2017-12-28T18:26:27.875Z,93070.67
2017-12-28T18:28:55.392Z,93073.63
2017-12-28T18:31:22.943Z,93073.02
2017-12-28T18:33:50.432Z,93084.31
2017-12-28T18:36:18.035Z,93090.32
2017-12-28T18:38:45.521Z,93072.39
2017-12-28T18:41:13.010Z,93087.78
2017-12-28T18:43:40.615Z,93084.58
2017-12-28T18:46:08.110Z,93092.78
2017-12-28T18:48:35.666Z,93097.11
2017-12-28T18:51:03.182Z,93099.58
2017-12-28T18:53:30.754Z,93104.78
2017-12-28T18:55:58.248Z,93093.21
2017-12-28T18:58:25.770Z,93075.46
2017-12-28T19:00:53.330Z,93071.31
2017-12-28T19:03:20.937Z,93058.81
2017-12-28T19:05:48.450Z,93063.77
2017-12-28T19:08:15.935Z,93068.47
2017-12-28T19:10:43.484Z,93053.65
2017-12-28T19:13:11.074Z,93055.65
2017-12-28T19:15:38.626Z,93053.70
2017-12-28T19:18:06.113Z,93059.13
2017-12-28T19:20:33.630Z,93045.64
2017-12-28T19:23:01.133Z,93054.98
2017-12-28T19:25:28.687Z,93045.34
2017-12-28T19:27:56.234Z,93037.11
2017-12-28T19:30:23.784Z,93024.59
2017-12-28T19:32:51.340Z,93026.55
2017-12-28T19:35:18.927Z,93033.24
2017-12-28T19:37:46.417Z,93043.05
2017-12-28T19:40:13.976Z,93020.36
2017-12-28T19:42:41.569Z,92990.44
2017-12-28T19:45:09.132Z,92968.42
2017-12-28T19:47:36.616Z,92961.42
2017-12-28T19:50:04.224Z,92966.58
2017-12-28T19:52:31.709Z,92963.77
2017-12-28T19:54:59.196Z,92970.61
2017-12-28T19:57:26.718Z,92971.42
2017-12-28T19:59:54.275Z,92992.38
2017-12-28T20:02:21.765Z,92997.84
2017-12-28T20:04:49.327Z,93026.25
2017-12-28T20:07:16.887Z,93038.75
2017-12-28T20:09:44.474Z,93041.52
2017-12-28T20:12:11.965Z,93007.05
2017-12-28T20:14:39.527Z,93035.63
2017-12-28T20:17:07.115Z,93021.84
2017-12-28T20:19:34.666Z,93014.38
2017-12-28T20:22:02.219Z,93041.91
2017-12-28T20:24:29.742Z,93058.77
2017-12-28T20:26:57.294Z,93038.17
2017-12-28T20:29:24.867Z,93065.05
2017-12-28T20:31:52.381Z,93071.38
2017-12-28T20:34:19.868Z,93069.84
2017-12-28T20:36:47.359Z,93076.28
2017-12-28T20:39:14.869Z,93064.17
2017-12-28T20:41:42.352Z,93084.34
2017-12-28T20:44:09.921Z,93101.95
2017-12-28T20:46:37.519Z,93096.95
2017-12-28T20:49:05.148Z,93054.84
2017-12-28T20:51:32.740Z,93030.53
2017-12-28T20:54:00.256Z,93049.73
2017-12-28T20:56:27.744Z,93074.80
2017-12-28T20:58:55.291Z,93056.05
2017-12-28T21:01:22.874Z,93051.01
2017-12-28T21:03:50.358Z,93068.97
2017-12-28T21:06:17.851Z,93089.45
2017-12-28T21:08:45.372Z,93086.63
2017-12-28T21:11:12.929Z,93085.96
2017-12-28T21:13:40.418Z,93102.50
2017-12-28T21:16:07.933Z,93106.79
2017-12-28T21:18:35.483Z,93143.86
2017-12-28T21:21:03.106Z,93084.83
2017-12-28T21:23:30.691Z,93014.75
2017-12-28T21:25:59.260Z,93063.74
2017-12-28T21:28:26.810Z,93069.57
2017-12-28T21:30:54.329Z,93084.28
2017-12-28T21:33:21.884Z,93091.21
2017-12-28T21:35:49.366Z,93096.11
2017-12-28T21:38:16.943Z,93096.05
2017-12-28T21:40:44.425Z,93100.86
2017-12-28T21:43:11.974Z,93091.81
2017-12-28T21:45:39.485Z,93107.72
2017-12-28T21:48:07.034Z,93109.22
2017-12-28T21:50:34.517Z,93085.53
2017-12-28T21:53:02.041Z,93095.33
2017-12-28T21:55:29.531Z,93101.71
2017-12-28T21:57:57.014Z,93087.27
2017-12-28T22:00:24.532Z,93087.73
2017-12-28T22:02:52.082Z,93095.13
2017-12-28T22:05:19.631Z,93090.69
2017-12-28T22:07:48.286Z,93110.23
2017-12-28T22:10:15.839Z,93122.12
2017-12-28T22:12:43.321Z,93091.84
2017-12-28T22:15:10.829Z,93085.94
2017-12-28T22:17:38.376Z,93091.50
2017-12-28T22:20:05.926Z,93113.33
2017-12-28T22:22:33.437Z,93112.11
2017-12-28T22:25:00.992Z,93099.41
2017-12-28T22:27:29.527Z,93095.52
2017-12-28T22:29:57.046Z,93095.06
2017-12-28T22:32:24.599Z,93087.00
2017-12-28T22:34:52.073Z,93097.75
2017-12-28T22:37:19.582Z,93092.70
2017-12-28T22:39:47.132Z,93097.60
2017-12-28T22:42:14.691Z,93081.48
2017-12-28T22:44:42.266Z,93076.06
2017-12-28T22:47:09.753Z,93081.63
2017-12-28T22:49:37.229Z,93077.34
2017-12-28T22:52:04.807Z,93082.70
2017-12-28T22:54:32.290Z,93087.34
2017-12-28T22:56:59.840Z,93104.84
2017-12-28T22:59:27.361Z,93100.20
2017-12-28T23:01:54.902Z,93096.98
2017-12-28T23:04:22.378Z,93087.39
2017-12-28T23:06:49.950Z,93091.97
2017-12-28T23:09:17.499Z,93096.06
2017-12-28T23:11:45.046Z,93098.94
2017-12-28T23:14:12.557Z,93085.72
2017-12-28T23:16:40.037Z,93092.23
2017-12-28T23:19:07.585Z,93096.52
2017-12-28T23:21:35.167Z,93107.14
2017-12-28T23:24:02.642Z,93100.35
2017-12-28T23:26:30.125Z,93093.05
2017-12-28T23:28:57.641Z,93099.34
2017-12-28T23:31:25.117Z,93108.67
2017-12-28T23:33:52.606Z,93114.33
2017-12-28T23:36:20.179Z,93110.64
2017-12-28T23:38:47.657Z,93121.91
2017-12-28T23:41:15.135Z,93127.42
2017-12-28T23:43:42.715Z,93149.11
2017-12-28T23:46:10.194Z,93144.33
2017-12-28T23:48:37.738Z,93142.53
2017-12-28T23:51:05.319Z,93140.30
2017-12-28T23:53:32.861Z,93134.94
2017-12-28T23:56:00.407Z,93146.06
2017-12-28T23:58:27.984Z,93150.09
